PWSweather.com
Personal Weather Stations
Station Observations
THEQULMNR
A Mountain, Tucson, AZ 85713

A MountainTucson, AZ 85713

Lat: 32.205986, Lon: -111.001395

Elevation: 2440

Station Type: Netatmo

Latest ConditionsUpdated 4:46:00 PM MST Thursday, May 23, 2019
Currently Today's Max Today's Min Today's Average
Temperature 78.8°F26.0°C 80.6°F27.0°C 58.1°F14.5°C 69.6°F20.9°C
Dew Point 43.2°F6.2°C 46.0°F7.8°C 35.1°F1.7°C 40.7°F4.8°C
Winds - N N - - - - -
Wind Gusts -- -- - -
Humidity 17% 46% 16% 31%
Pressure 29.96 in1014.6 mb 30.04 in1017.3 mb 29.82 in1009.8 mb -
Hour Temp Dew Point Humidity Winds Wind Gusts Pressure Precip Precip Rate Daily Precip Total
04:46 PM 78.8°F26.0°C 43.2°F6.2°C 17% - N N -- 29.96 in1014.6 mb 0.00 in0.0 mm 0.00 in0.0 mm 0.00 in0.0 mm
04:26 PM 79.0°F26.1°C 43.2°F6.2°C 17% - N N -- 29.96 in1014.6 mb 0.00 in0.0 mm 0.00 in0.0 mm 0.00 in0.0 mm
04:06 PM 79.2°F26.2°C 43.0°F6.1°C 16% - N N -- 29.98 in1015.2 mb 0.00 in0.0 mm 0.00 in0.0 mm 0.00 in0.0 mm
03:45 PM 79.3°F26.3°C 43.5°F6.4°C 17% - N N -- 29.98 in1015.2 mb 0.00 in0.0 mm 0.00 in0.0 mm 0.00 in0.0 mm
03:26 PM 79.5°F26.4°C 43.7°F6.5°C 17% - N N -- 29.98 in1015.2 mb 0.00 in0.0 mm 0.00 in0.0 mm 0.00 in0.0 mm
03:05 PM 79.5°F26.4°C 43.7°F6.5°C 17% - N N -- 29.98 in1015.2 mb 0.00 in0.0 mm 0.00 in0.0 mm 0.00 in0.0 mm
02:45 PM 79.7°F26.5°C 43.3°F6.3°C 16% - N N -- 29.99 in1015.6 mb 0.00 in0.0 mm 0.00 in0.0 mm 0.00 in0.0 mm
02:25 PM 80.1°F26.7°C 44.2°F6.8°C 17% - N N -- 30.00 in1015.9 mb 0.00 in0.0 mm 0.00 in0.0 mm 0.00 in0.0 mm
02:05 PM 79.7°F26.5°C 44.2°F6.8°C 18% - N N -- 30.00 in1015.9 mb 0.00 in0.0 mm 0.00 in0.0 mm 0.00 in0.0 mm
01:45 PM 80.4°F26.9°C 45.0°F7.2°C 18% - N N -- 30.01 in1016.3 mb 0.00 in0.0 mm 0.00 in0.0 mm 0.00 in0.0 mm
01:24 PM 79.9°F26.6°C 44.4°F6.9°C 18% - N N -- 30.02 in1016.6 mb 0.00 in0.0 mm 0.00 in0.0 mm 0.00 in0.0 mm
01:04 PM 78.4°F25.8°C 43.7°F6.5°C 19% - N N -- 30.02 in1016.6 mb 0.00 in0.0 mm 0.00 in0.0 mm 0.00 in0.0 mm
12:44 PM 79.0°F26.1°C 44.6°F7.0°C 20% - N N -- 30.03 in1016.9 mb 0.00 in0.0 mm 0.00 in0.0 mm 0.00 in0.0 mm
12:24 PM 79.0°F26.1°C 44.6°F7.0°C 20% - N N -- 30.03 in1016.9 mb 0.00 in0.0 mm 0.00 in0.0 mm 0.00 in0.0 mm
12:03 PM 79.2°F26.2°C 44.8°F7.1°C 20% - N N -- 30.03 in1016.9 mb 0.00 in0.0 mm 0.00 in0.0 mm 0.00 in0.0 mm
11:44 AM 80.6°F27.0°C 46.0°F7.8°C 20% - N N -- 30.03 in1016.9 mb 0.00 in0.0 mm 0.00 in0.0 mm 0.00 in0.0 mm
11:23 AM 79.7°F26.5°C 45.1°F7.3°C 20% - N N -- 30.03 in1016.9 mb 0.00 in0.0 mm 0.00 in0.0 mm 0.00 in0.0 mm
11:03 AM 79.2°F26.2°C 44.8°F7.1°C 20% - N N -- 30.04 in1017.3 mb 0.00 in0.0 mm 0.00 in0.0 mm 0.00 in0.0 mm
10:43 AM 78.6°F25.9°C 45.1°F7.3°C 22% - N N -- 30.03 in1016.9 mb 0.00 in0.0 mm 0.00 in0.0 mm 0.00 in0.0 mm
10:22 AM 76.1°F24.5°C 43.7°F6.5°C 24% - N N -- 30.03 in1016.9 mb 0.00 in0.0 mm 0.00 in0.0 mm 0.00 in0.0 mm
10:03 AM 75.2°F24.0°C 43.3°F6.3°C 25% - N N -- 30.02 in1016.6 mb 0.00 in0.0 mm 0.00 in0.0 mm 0.00 in0.0 mm
09:42 AM 73.4°F23.0°C 43.2°F6.2°C 28% - N N -- 30.02 in1016.6 mb 0.00 in0.0 mm 0.00 in0.0 mm 0.00 in0.0 mm
09:22 AM 73.9°F23.3°C 44.1°F6.7°C 29% - N N -- 30.02 in1016.6 mb 0.00 in0.0 mm 0.00 in0.0 mm 0.00 in0.0 mm
09:02 AM 73.4°F23.0°C 43.9°F6.6°C 30% - N N -- 30.01 in1016.3 mb 0.00 in0.0 mm 0.00 in0.0 mm 0.00 in0.0 mm
08:42 AM 71.1°F21.7°C 42.6°F5.9°C 32% - N N -- 30.01 in1016.3 mb 0.00 in0.0 mm 0.00 in0.0 mm 0.00 in0.0 mm
08:22 AM 70.0°F21.1°C 42.1°F5.6°C 33% - N N -- 30.00 in1015.9 mb 0.00 in0.0 mm 0.00 in0.0 mm 0.00 in0.0 mm
08:01 AM 69.6°F20.9°C 42.3°F5.7°C 34% - N N -- 30.00 in1015.9 mb 0.00 in0.0 mm 0.00 in0.0 mm 0.00 in0.0 mm
07:41 AM 70.3°F21.3°C 43.3°F6.3°C 35% - N N -- 29.99 in1015.6 mb 0.00 in0.0 mm 0.00 in0.0 mm 0.00 in0.0 mm
07:21 AM 66.9°F19.4°C 41.5°F5.3°C 38% - N N -- 29.98 in1015.2 mb 0.00 in0.0 mm 0.00 in0.0 mm 0.00 in0.0 mm
07:01 AM 63.5°F17.5°C 39.2°F4.0°C 40% - N N -- 29.97 in1014.9 mb 0.00 in0.0 mm 0.00 in0.0 mm 0.00 in0.0 mm
06:40 AM 60.3°F15.7°C 37.4°F3.0°C 43% - N N -- 29.96 in1014.6 mb 0.00 in0.0 mm 0.00 in0.0 mm 0.00 in0.0 mm
06:21 AM 58.1°F14.5°C 35.6°F2.0°C 43% - N N -- 29.95 in1014.2 mb 0.00 in0.0 mm 0.00 in0.0 mm 0.00 in0.0 mm
06:00 AM 58.1°F14.5°C 35.1°F1.7°C 42% - N N -- 29.94 in1013.9 mb 0.00 in0.0 mm 0.00 in0.0 mm 0.00 in0.0 mm
05:40 AM 58.1°F14.5°C 35.1°F1.7°C 42% - N N -- 29.93 in1013.5 mb 0.00 in0.0 mm 0.00 in0.0 mm 0.00 in0.0 mm
05:30 AM 58.1°F14.5°C 35.1°F1.7°C 42% - N N -- 29.92 in1013.2 mb 0.00 in0.0 mm 0.00 in0.0 mm 0.00 in0.0 mm
04:59 AM 58.6°F14.8°C 35.2°F1.8°C 41% - N N -- 29.90 in1012.5 mb 0.00 in0.0 mm 0.00 in0.0 mm 0.00 in0.0 mm
04:40 AM 59.2°F15.1°C 36.5°F2.5°C 43% - N N -- 29.89 in1012.2 mb 0.00 in0.0 mm 0.00 in0.0 mm 0.00 in0.0 mm
04:29 AM 59.2°F15.1°C 36.9°F2.7°C 44% - N N -- 29.89 in1012.2 mb 0.00 in0.0 mm 0.00 in0.0 mm 0.00 in0.0 mm
04:09 AM 59.4°F15.2°C 37.9°F3.3°C 46% - N N -- 29.88 in1011.9 mb 0.00 in0.0 mm 0.00 in0.0 mm 0.00 in0.0 mm
03:39 AM 59.7°F15.4°C 37.8°F3.2°C 45% - N N -- 29.88 in1011.9 mb 0.00 in0.0 mm 0.00 in0.0 mm 0.00 in0.0 mm
03:29 AM 60.1°F15.6°C 37.8°F3.2°C 44% - N N -- 29.87 in1011.5 mb 0.00 in0.0 mm 0.00 in0.0 mm 0.00 in0.0 mm
03:08 AM 60.3°F15.7°C 37.0°F2.8°C 42% - N N -- 29.86 in1011.2 mb 0.00 in0.0 mm 0.00 in0.0 mm 0.00 in0.0 mm
02:49 AM 60.3°F15.7°C 37.0°F2.8°C 42% - N N -- 29.85 in1010.8 mb 0.00 in0.0 mm 0.00 in0.0 mm 0.00 in0.0 mm
02:28 AM 60.4°F15.8°C 37.2°F2.9°C 42% - N N -- 29.85 in1010.8 mb 0.00 in0.0 mm 0.00 in0.0 mm 0.00 in0.0 mm
02:08 AM 60.4°F15.8°C 36.9°F2.7°C 41% - N N -- 29.84 in1010.5 mb 0.00 in0.0 mm 0.00 in0.0 mm 0.00 in0.0 mm
01:48 AM 60.4°F15.8°C 36.9°F2.7°C 41% - N N -- 29.84 in1010.5 mb 0.00 in0.0 mm 0.00 in0.0 mm 0.00 in0.0 mm
01:27 AM 60.3°F15.7°C 36.3°F2.4°C 40% - N N -- 29.83 in1010.2 mb 0.00 in0.0 mm 0.00 in0.0 mm 0.00 in0.0 mm
01:08 AM 60.6°F15.9°C 36.7°F2.6°C 40% - N N -- 29.82 in1009.8 mb 0.00 in0.0 mm 0.00 in0.0 mm 0.00 in0.0 mm
12:47 AM 61.0°F16.1°C 36.5°F2.5°C 39% - N N -- 29.82 in1009.8 mb 0.00 in0.0 mm 0.00 in0.0 mm 0.00 in0.0 mm
12:28 AM 61.5°F16.4°C 36.7°F2.6°C 38% - N N -- 29.82 in1009.8 mb 0.00 in0.0 mm 0.00 in0.0 mm 0.00 in0.0 mm
12:07 AM 62.2°F16.8°C 36.9°F2.7°C 37% - N N -- 29.82 in1009.8 mb 0.00 in0.0 mm 0.00 in0.0 mm 0.00 in0.0 mm